Data for 04/04/2015

Time Sea-Level Adjusted Pressure Absolute Pressure Temperature Relative Humidity Dew Point   
(mb) (inHg) (mb) (inHg) (C) (F) (%) (C) (F)
00:05 1019 30.09 848 25.04 2.5 36.6 30 -13.2 8.2
00:10 1019 30.09 848 25.04 2.7 36.8 30 -13.4 7.9
00:15 1018 30.06 848 25.04 2.8 37 33 -12.1 10.3
00:20 1018 30.06 848 25.04 2.5 36.5 33 -12.4 9.8
00:25 1018 30.06 848 25.04 2.7 36.8 34 -11.8 10.8
00:30 1018 30.06 848 25.04 2.4 36.4 36 -11.2 11.8
00:35 1018 30.06 847 25.01 2.1 35.8 36 -11.6 11.1
00:40 1018 30.06 847 25.01 2.1 35.9 36 -11.5 11.3
00:45 1018 30.06 847 25.01 2 35.6 37 -11.1 12.1
00:50 1018 30.06 847 25.01 1.8 35.3 39 -10.8 12.6
00:55 1018 30.06 847 25.01 1.6 35 44 -9.5 14.9
01:00 1018 30.06 847 25.01 1.2 34.1 43 -10.2 13.7
01:05 1018 30.06 847 25.01 1.1 34 43 -10 14
01:10 1018 30.06 847 25.01 1 33.8 38 -11.9 10.5
01:15 1018 30.06 847 25.01 1.3 34.3 41 -10.7 12.7
01:20 1018 30.06 847 25.01 1.2 34.1 40 -10.9 12.4
01:25 1018 30.06 847 25.01 1.2 34.2 39 -11.4 11.6
01:30 1018 30.06 847 25.01 1.3 34.4 39 -11.3 11.7
01:35 1018 30.06 847 25.01 1.5 34.6 37 -11.6 11.1
01:40 1018 30.06 847 25.01 1.5 34.7 38 -11.5 11.3
01:45 1018 30.06 847 25.01 1.5 34.7 37 -11.6 11.2
01:50 1018 30.06 847 25.01 1.4 34.6 39 -11 12.2
01:55 1018 30.06 847 25.01 1.3 34.4 40 -11 12.2
02:00 1018 30.06 847 25.01 1.2 34.2 41 -10.6 13
02:05 1018 30.06 847 25.01 1.2 34.2 41 -10.8 12.6
02:10 1018 30.06 847 25.01 1.2 34.2 40 -10.9 12.5
02:15 1018 30.06 847 25.01 1.1 34.1 42 -10.5 13.1
02:20 1018 30.06 847 25.01 1 33.8 42 -10.5 13.1
02:25 1018 30.06 847 25.01 1.1 34.1 40 -11 12.2
02:30 1018 30.06 847 25.01 1.3 34.3 37 -11.8 10.7
02:35 1018 30.06 847 25.01 1.4 34.6 36 -11.9 10.5
02:40 1018 30.06 847 25.01 1.5 34.8 35 -12.2 10
02:45 1018 30.06 847 25.01 1.8 35.2 34 -12.4 9.7
02:50 1018 30.06 847 25.01 1.6 34.9 35 -12.1 10.2
02:55 1018 30.06 847 25.01 1.6 34.8 37 -11.7 10.9
03:00 1017 30.03 847 25.01 1.4 34.6 37 -11.7 11
03:05 1017 30.03 847 25.01 1.3 34.4 37 -11.7 10.9
03:10 1017 30.03 847 25.01 1.5 34.6 37 -11.8 10.7
03:15 1017 30.03 847 25.01 1.5 34.7 34 -12.8 9
03:20 1017 30.03 847 25.01 1.7 35 34 -12.6 9.3
03:25 1017 30.03 846 24.98 1.7 35 33 -12.8 8.9
03:30 1017 30.03 846 24.98 1.7 35.1 33 -12.8 9
03:35 1017 30.03 846 24.98 1.7 35 34 -12.6 9.2
03:40 1017 30.03 846 24.98 1.5 34.7 36 -12.1 10.2
03:45 1017 30.03 846 24.98 1.4 34.4 36 -12.2 10
03:50 1017 30.03 846 24.98 1.2 34.2 38 -11.7 10.9
03:55 1017 30.03 846 24.98 1.1 34 37 -12.1 10.3
04:00 1017 30.03 846 24.98 1 33.8 38 -11.8 10.8
04:05 1017 30.03 846 24.98 0.7 33.3 40 -11.3 11.6
04:10 1017 30.03 846 24.98 0.5 33 39 -12 10.3
04:15 1017 30.03 846 24.98 0.8 33.4 37 -12.4 9.7
04:20 1017 30.03 846 24.98 1.1 34.1 34 -13.1 8.5
04:25 1017 30.03 846 24.98 1.4 34.6 33 -13.2 8.3
04:30 1017 30.03 846 24.98 1.7 35 34 -12.5 9.5
04:35 1017 30.03 846 24.98 1.5 34.6 39 -11 12.2
04:40 1017 30.03 846 24.98 1 33.8 42 -10.6 12.8
04:45 1017 30.03 846 24.98 0.8 33.4 43 -10.5 13
04:50 1017 30.03 846 24.98 0.8 33.5 40 -11.2 11.9
04:55 1017 30.03 846 24.98 1.2 34.2 39 -11.2 11.9
05:00 1017 30.03 846 24.98 1.2 34.2 36 -12.1 10.2
05:05 1017 30.03 846 24.98 1.2 34.1 36 -12.5 9.5
05:10 1017 30.03 846 24.98 1.3 34.3 35 -12.8 9
05:15 1017 30.03 846 24.98 1.4 34.5 36 -12.3 9.9
05:20 1017 30.03 846 24.98 1 33.9 39 -11.4 11.6
05:25 1017 30.03 846 24.98 0.7 33.3 40 -11.4 11.4
05:30 1017 30.03 846 24.98 0.8 33.4 39 -11.8 10.8
05:35 1016 30 846 24.98 0.9 33.5 39 -11.6 11.2
05:40 1017 30.03 846 24.98 0.8 33.5 39 -11.5 11.4
05:45 1016 30 846 24.98 0.9 33.6 38 -11.9 10.5
05:50 1017 30.03 846 24.98 1.1 34 37 -12 10.3
05:55 1017 30.03 846 24.98 1.2 34.2 37 -12 10.5
06:00 1017 30.03 846 24.98 1.1 33.9 41 -10.7 12.7
06:05 1017 30.03 846 24.98 0.9 33.6 40 -11.2 11.8
06:10 1017 30.03 846 24.98 0.9 33.6 40 -11.2 11.9
06:15 1017 30.03 846 24.98 0.9 33.6 38 -11.7 10.9
06:20 1017 30.03 846 24.98 1.1 33.9 38 -11.8 10.8
06:25 1017 30.03 846 24.98 1.3 34.3 36 -12.2 10.1
06:30 1016 30 846 24.98 1.5 34.7 35 -12.6 9.4
06:35 1016 30 846 24.98 1.7 35 36 -12 10.4
06:40 1016 30 846 24.98 1.5 34.8 36 -11.8 10.7
06:45 1016 30 846 24.98 1.6 34.8 36 -12 10.4
06:50 1016 30 846 24.98 1.6 34.9 36 -11.9 10.5
06:55 1016 30 846 24.98 1.7 35 36 -12 10.4
07:00 1016 30 846 24.98 1.8 35.2 36 -11.9 10.6
07:05 1016 30 846 24.98 1.9 35.4 36 -11.6 11.1
07:10 1016 30 846 24.98 1.9 35.5 36 -11.5 11.2
07:15 1016 30 846 24.98 2 35.7 36 -11.6 11
07:20 1016 30 846 24.98 2.3 36.2 33 -12.4 9.7
07:25 1016 30 846 24.98 2.5 36.5 33 -12.2 10
07:30 1016 30 846 24.98 2.6 36.6 33 -12 10.3
07:35 1016 30 845 24.95 2.6 36.7 34 -11.6 11.1
07:40 1016 30 845 24.95 2.8 37.1 32 -12.2 10.1
07:45 1016 30 845 24.95 3 37.4 33 -11.6 11
07:50 1016 30 845 24.95 2.9 37.3 32 -12.4 9.7
07:55 1016 30 845 24.95 3.2 37.7 34 -11.4 11.5
08:00 1016 30 845 24.95 3.2 37.8 32 -11.9 10.6
08:05 1016 30 845 24.95 3.5 38.3 32 -11.7 10.9
08:10 1016 30 845 24.95 3.5 38.3 33 -11.4 11.5
08:15 1016 30 845 24.95 3.5 38.4 33 -11.5 11.4
08:20 1016 30 845 24.95 3.7 38.7 33 -11.2 11.8
08:25 1016 30 845 24.95 3.8 38.9 32 -11.4 11.4
08:30 1016 30 845 24.95 4 39.1 33 -11.1 12.1
08:35 1016 30 845 24.95 4.1 39.4 32 -11 12.2
08:40 1015 29.97 845 24.95 4.3 39.8 32 -11 12.2
08:45 1015 29.97 845 24.95 4.6 40.2 30 -11.5 11.3
08:50 1015 29.97 845 24.95 4.9 40.8 30 -11.5 11.4
08:55 1015 29.97 844 24.92 5.2 41.3 29 -11.7 11
09:00 1015 29.97 844 24.92 5.2 41.4 29 -11.5 11.2
09:05 1015 29.97 844 24.92 5.3 41.5 29 -11.2 11.8
09:10 1015 29.97 844 24.92 5.5 41.8 30 -10.7 12.8
09:15 1015 29.97 844 24.92 5.7 42.2 30 -10.6 13
09:20 1015 29.97 844 24.92 5.7 42.3 29 -10.8 12.5
09:25 1015 29.97 844 24.92 5.9 42.6 29 -10.8 12.6
09:30 1015 29.97 844 24.92 6 42.9 28 -11.2 11.8
09:35 1015 29.97 844 24.92 6.2 43.2 27 -11.6 11.2
09:40 1015 29.97 845 24.95 6.6 43.9 28 -10.8 12.6
09:45 1015 29.97 845 24.95 6.9 44.5 24 -12.2 10.1
09:50 1015 29.97 844 24.92 7.4 45.3 26 -10.9 12.4
09:55 1015 29.97 844 24.92 7.4 45.2 28 -10 13.9
10:00 1015 29.97 844 24.92 7.2 45 29 -9.5 14.8
10:05 1015 29.97 844 24.92 7.4 45.4 29 -9.4 15
10:10 1015 29.97 844 24.92 7.6 45.6 30 -9.1 15.7
10:15 1015 29.97 844 24.92 7.7 45.9 28 -9.6 14.8
10:20 1015 29.97 844 24.92 8.1 46.5 25 -10.9 12.5
10:25 1015 29.97 844 24.92 7.8 46.1 25 -11.2 11.9
10:30 1015 29.97 844 24.92 7.9 46.2 25 -10.7 12.7
10:35 1015 29.97 844 24.92 8.2 46.7 24 -11.2 11.9
10:40 1015 29.97 844 24.92 8 46.5 24 -11.2 11.8
10:45 1015 29.97 844 24.92 8.1 46.6 25 -10.8 12.6
10:50 1015 29.97 844 24.92 8.2 46.7 25 -10.9 12.4
10:55 1015 29.97 844 24.92 8.3 47 29 -8.9 16
11:00 1015 29.97 844 24.92 8.3 47 29 -8.6 16.5
11:05 1015 29.97 844 24.92 8.1 46.5 30 -8.7 16.3
11:10 1015 29.97 844 24.92 8 46.4 29 -9.1 15.6
11:15 1015 29.97 844 24.92 8 46.3 29 -9 15.8
11:20 1015 29.97 844 24.92 8.1 46.5 29 -9 15.7
11:25 1015 29.97 844 24.92 8 46.4 28 -9.3 15.3
11:30 1014 29.94 844 24.92 7.9 46.2 28 -9.6 14.7
11:35 1014 29.94 844 24.92 7.9 46.3 28 -9.4 15
11:40 1014 29.94 844 24.92 8.1 46.5 26 -10.5 13.1
11:45 1014 29.94 844 24.92 8.1 46.5 26 -10.5 13.1
11:50 1014 29.94 844 24.92 8 46.4 27 -10.1 13.8
11:55 1014 29.94 844 24.92 7.8 46 27 -9.9 14.2
12:00 1014 29.94 844 24.92 7.8 46 28 -9.8 14.3
12:05 1014 29.94 844 24.92 7.7 45.8 26 -10.7 12.7
12:10 1014 29.94 844 24.92 7.7 45.8 26 -10.8 12.5
12:15 1014 29.94 844 24.92 7.8 46.1 26 -10.6 12.9
12:20 1014 29.94 843 24.89 7.7 45.8 25 -11.3 11.6
12:25 1014 29.94 843 24.89 7.9 46.3 25 -10.8 12.5
12:30 1014 29.94 843 24.89 8.1 46.5 24 -11.1 12
12:35 1014 29.94 843 24.89 8.1 46.6 25 -11 12.2
12:40 1014 29.94 843 24.89 7.8 46 25 -11.3 11.7
12:45 1014 29.94 843 24.89 7.7 45.8 25 -11.3 11.6
12:50 1014 29.94 843 24.89 7.8 46 24 -11.5 11.3
12:55 1014 29.94 843 24.89 7.9 46.2 24 -11.4 11.4
13:00 1014 29.94 843 24.89 8 46.4 24 -11.3 11.7
13:05 1014 29.94 843 24.89 8.2 46.8 23 -11.7 11
13:10 1014 29.94 843 24.89 8.2 46.7 24 -11.4 11.5
13:15 1014 29.94 843 24.89 8.1 46.5 24 -11.2 11.8
13:20 1014 29.94 843 24.89 8.2 46.7 24 -11.5 11.4
13:25 1014 29.94 843 24.89 8.2 46.7 23 -11.6 11.2
13:30 1014 29.94 843 24.89 8 46.3 24 -11.6 11.1
13:35 1014 29.94 843 24.89 7.9 46.3 24 -11.6 11.1
13:40 1013 29.91 843 24.89 8.5 47.2 23 -11.6 11.2
13:45 1013 29.91 843 24.89 8.7 47.7 22 -11.6 11
13:50 1013 29.91 843 24.89 8.3 47 23 -11.5 11.4
13:55 1013 29.91 842 24.86 8.1 46.6 24 -11.5 11.3
14:00 1013 29.91 842 24.86 8.2 46.7 23 -11.7 11
14:05 1013 29.91 842 24.86 8.2 46.7 23 -11.7 10.9
14:10 1013 29.91 842 24.86 8.1 46.5 23 -11.7 10.9
14:15 1013 29.91 842 24.86 8 46.4 23 -11.7 11
14:20 1013 29.91 842 24.86 8.1 46.5 23 -11.9 10.6
14:25 1013 29.91 842 24.86 8.2 46.7 23 -11.6 11.1
14:30 1013 29.91 842 24.86 8.2 46.8 23 -11.8 10.8
14:35 1013 29.91 842 24.86 8.4 47 23 -11.8 10.7
14:40 1013 29.91 842 24.86 8.5 47.3 23 -11.5 11.3
14:45 1013 29.91 842 24.86 8.7 47.7 22 -11.7 10.9
14:50 1013 29.91 842 24.86 8.4 47.2 23 -11.4 11.4
14:55 1013 29.91 842 24.86 8.7 47.6 22 -11.6 11
15:00 1013 29.91 842 24.86 8.4 47.1 23 -11.6 11.1
15:05 1013 29.91 842 24.86 8.5 47.3 23 -11.6 11.2
15:10 1013 29.91 842 24.86 8.4 47.1 25 -10.5 13
15:15 1013 29.91 842 24.86 7.6 45.7 31 -8.7 16.4
15:20 1013 29.91 842 24.86 7.1 44.7 35 -7.2 19
15:25 1013 29.91 842 24.86 6.8 44.3 33 -8.3 17
15:30 1013 29.91 842 24.86 7 44.7 33 -8.3 17
15:35 1013 29.91 842 24.86 7.5 45.4 30 -8.9 15.9
15:40 1013 29.91 842 24.86 7.5 45.5 30 -8.8 16.2
15:45 1013 29.91 842 24.86 7.3 45.2 31 -8.9 16
15:50 1013 29.91 842 24.86 7.3 45.1 31 -9 15.9
15:55 1013 29.91 842 24.86 7.5 45.5 30 -8.8 16.2
16:00 1013 29.91 842 24.86 7.5 45.4 31 -8.5 16.7
16:05 1013 29.91 842 24.86 7.4 45.3 33 -7.9 17.8
16:10 1013 29.91 842 24.86 7.2 45 36 -6.9 19.6
16:15 1013 29.91 842 24.86 6.5 43.7 35 -8.1 17.5
16:20 1013 29.91 842 24.86 6.6 43.9 34 -8.3 17.1
16:25 1013 29.91 842 24.86 6.5 43.7 41 -5.9 21.3
16:30 1013 29.91 842 24.86 6 42.9 42 -6 21.3
16:35 1013 29.91 842 24.86 6 42.9 41 -6.3 20.6
16:40 1013 29.91 842 24.86 6.1 43.1 40 -6.6 20.2
16:45 1013 29.91 842 24.86 6.3 43.3 40 -6.4 20.4
16:50 1013 29.91 843 24.89 6.2 43.2 41 -5.9 21.3
16:55 1013 29.91 843 24.89 6.1 43.1 42 -5.9 21.4
17:00 1013 29.91 843 24.89 6.3 43.3 44 -5.1 22.7
17:05 1013 29.91 842 24.86 6.3 43.3 45 -4.8 23.3
17:10 1013 29.91 842 24.86 6.2 43.2 48 -4.1 24.6
17:15 1013 29.91 842 24.86 5.9 42.7 48 -4.1 24.5
17:20 1013 29.91 842 24.86 5.9 42.7 48 -4.3 24.3
17:25 1013 29.91 842 24.86 6 42.9 47 -4.3 24.3
17:30 1013 29.91 842 24.86 6.1 43 47 -4.5 24
17:35 1013 29.91 842 24.86 6.2 43.2 47 -4.2 24.4
17:40 1013 29.91 842 24.86 6.3 43.3 47 -4.3 24.3
17:45 1013 29.91 842 24.86 6.3 43.3 47 -4.2 24.5
17:50 1013 29.91 842 24.86 6.3 43.3 47 -4.1 24.6
17:55 1013 29.91 842 24.86 6.3 43.3 47 -4.1 24.6
18:00 1013 29.91 842 24.86 6.3 43.4 47 -4.1 24.7
18:05 1013 29.91 842 24.86 6.3 43.4 48 -3.8 25.1
18:10 1013 29.91 842 24.86 6.3 43.4 48 -3.9 25
18:15 1013 29.91 842 24.86 6.3 43.3 46 -4.5 23.9
18:20 1013 29.91 842 24.86 6.5 43.6 46 -4.4 24.2
18:25 1013 29.91 842 24.86 6.4 43.5 46 -4.3 24.2
18:30 1013 29.91 842 24.86 6.3 43.4 47 -4.1 24.6
18:35 1013 29.91 842 24.86 6.2 43.1 47 -4.4 24.1
18:40 1013 29.91 842 24.86 6.2 43.1 51 -3.3 26
18:45 1013 29.91 842 24.86 5.6 42.1 52 -3.5 25.8
18:50 1013 29.91 842 24.86 5.6 42.1 51 -3.7 25.3
18:55 1013 29.91 842 24.86 5.8 42.4 52 -3.3 26.1
19:00 1013 29.91 842 24.86 5.7 42.3 56 -2.4 27.7
19:05 1013 29.91 843 24.89 5 40.9 69 -0.2 31.6
19:10 1014 29.94 843 24.89 3.6 38.5 78 0.1 32.1
19:15 1014 29.94 843 24.89 2.8 37.1 82 0.1 32.2
19:20 1014 29.94 843 24.89 2.5 36.5 84 0 32.1
19:25 1014 29.94 843 24.89 2.3 36.2 85 -0 32
19:30 1014 29.94 843 24.89 2.3 36.1 85 0 32
19:35 1014 29.94 843 24.89 2.2 35.9 86 0 32.1
19:40 1014 29.94 843 24.89 2.1 35.8 86 0.1 32.1
19:45 1014 29.94 843 24.89 2 35.6 88 0.2 32.3
19:50 1014 29.94 844 24.92 1.9 35.5 88 0.2 32.3
19:55 1014 29.94 844 24.92 1.7 35.1 89 0.1 32.2
20:00 1014 29.94 844 24.92 1.5 34.8 89 -0 32
20:05 1015 29.97 844 24.92 1.3 34.3 90 -0.2 31.6
20:10 1015 29.97 844 24.92 1.3 34.3 91 -0.1 31.8
20:15 1015 29.97 844 24.92 1.2 34.1 91 -0.2 31.7
20:20 1015 29.97 844 24.92 0.9 33.6 92 -0.3 31.5
20:25 1015 29.97 844 24.92 0.6 33 93 -0.4 31.3
20:30 1015 29.97 844 24.92 0.5 32.9 94 -0.4 31.4
20:35 1015 29.97 844 24.92 0.6 33.2 94 -0.2 31.6
20:40 1015 29.97 844 24.92 0.6 33.2 93 -0.3 31.5
20:45 1015 29.97 844 24.92 0.7 33.2 94 -0.2 31.6
20:50 1015 29.97 844 24.92 0.7 33.3 93 -0.2 31.6
20:55 1015 29.97 844 24.92 0.8 33.5 93 -0.2 31.6
21:00 1015 29.97 844 24.92 0.9 33.7 92 -0.2 31.6
21:05 1015 29.97 844 24.92 1.1 34 91 -0.1 31.8
21:10 1015 29.97 844 24.92 1.2 34.2 90 -0.2 31.6
21:15 1015 29.97 844 24.92 1.3 34.3 90 -0.2 31.6
21:20 1015 29.97 844 24.92 1.3 34.4 89 -0.2 31.6
21:25 1015 29.97 844 24.92 1.4 34.5 88 -0.4 31.3
21:30 1015 29.97 844 24.92 1.5 34.7 87 -0.4 31.3
21:35 1015 29.97 844 24.92 1.5 34.8 87 -0.3 31.4
21:40 1015 29.97 844 24.92 1.5 34.7 87 -0.4 31.3
21:45 1015 29.97 844 24.92 1.5 34.7 86 -0.5 31.1
21:50 1014 29.94 844 24.92 1.4 34.6 86 -0.6 30.9
21:55 1015 29.97 844 24.92 1.4 34.5 88 -0.5 31.2
22:00 1014 29.94 844 24.92 1.4 34.5 87 -0.5 31
22:05 1014 29.94 844 24.92 1.3 34.3 88 -0.5 31
22:10 1014 29.94 844 24.92 1.3 34.4 87 -0.6 30.9
22:15 1014 29.94 843 24.89 1.4 34.5 86 -0.7 30.8
22:20 1014 29.94 843 24.89 1.4 34.5 87 -0.5 31.1
22:25 1014 29.94 843 24.89 1.1 34 89 -0.5 31.2
22:30 1014 29.94 843 24.89 0.9 33.6 91 -0.5 31.2
22:35 1014 29.94 843 24.89 0.8 33.4 91 -0.5 31.1
22:40 1014 29.94 843 24.89 0.7 33.3 92 -0.5 31
22:45 1014 29.94 843 24.89 0.7 33.2 92 -0.5 31.1
22:50 1014 29.94 843 24.89 0.7 33.2 92 -0.5 31
22:55 1014 29.94 843 24.89 0.8 33.4 91 -0.5 31
23:00 1014 29.94 843 24.89 0.8 33.5 90 -0.6 31
23:05 1014 29.94 843 24.89 0.8 33.5 90 -0.6 30.9
23:10 1014 29.94 843 24.89 0.8 33.4 90 -0.7 30.8
23:15 1014 29.94 843 24.89 0.8 33.4 89 -0.8 30.6
23:20 1014 29.94 843 24.89 0.9 33.7 88 -0.9 30.4
23:25 1014 29.94 843 24.89 0.9 33.6 88 -0.8 30.5
23:30 1014 29.94 843 24.89 0.8 33.5 88 -0.9 30.4
23:35 1014 29.94 843 24.89 0.8 33.5 88 -0.9 30.3
23:40 1014 29.94 843 24.89 0.8 33.5 88 -0.9 30.4
23:45 1014 29.94 843 24.89 0.7 33.3 89 -0.9 30.4
23:50 1014 29.94 843 24.89 0.7 33.3 89 -0.9 30.4
23:55 1014 29.94 843 24.89 0.8 33.4 89 -0.8 30.5
24:00 1014 29.94 843 24.89 0.8 33.4 89 -0.9 30.4